Time;durP1;ratioP1;P1;durP2;ratioP2;P2;SDS_P1;SDS_P2;PMS_P1;PMS_P2;Temp;Humidity;BMP_temperature;BMP_pressure;BME280_temperature;BME280_humidity;BME280_pressure;Samples;Min_cycle;Max_cycle;Signal;HPM_P1;HPM_P2
2021/05/26 00:02:20;;;;;;;0.57;0.30;;;12.40;51.10;;;;;;5031283;28;20120;-64
2021/05/26 00:04:48;;;;;;;0.85;0.40;;;12.40;51.20;;;;;;5027187;28;20030;-63
2021/05/26 00:07:14;;;;;;;1.42;0.30;;;12.40;51.30;;;;;;5030027;28;20547;-64
2021/05/26 00:09:41;;;;;;;0.45;0.20;;;12.30;51.20;;;;;;5035224;28;20033;-64
2021/05/26 00:12:12;;;;;;;1.27;0.60;;;12.40;51.30;;;;;;5030510;28;20034;-64
2021/05/26 00:14:40;;;;;;;0.93;0.30;;;12.40;51.40;;;;;;5028940;28;20064;-64
2021/05/26 00:17:10;;;;;;;2.75;0.40;;;12.40;51.30;;;;;;5028172;28;20039;-64
2021/05/26 00:19:38;;;;;;;3.88;0.50;;;12.40;51.40;;;;;;5033460;28;20037;-64
2021/05/26 00:22:08;;;;;;;0.50;0.20;;;12.40;51.40;;;;;;5031076;28;20061;-64
2021/05/26 00:24:36;;;;;;;0.32;0.20;;;12.40;51.50;;;;;;5026171;28;20120;-64
2021/05/26 00:27:03;;;;;;;1.45;0.30;;;12.40;51.40;;;;;;5026577;28;20021;-64
2021/05/26 00:29:34;;;;;;;1.58;0.40;;;12.40;51.50;;;;;;5027283;28;20041;-64
2021/05/26 00:32:07;;;;;;;1.35;0.30;;;12.40;51.60;;;;;;5027221;28;20041;-64
2021/05/26 00:34:37;;;;;;;1.60;0.30;;;12.40;51.60;;;;;;5030982;28;20124;-63
2021/05/26 00:37:07;;;;;;;1.02;0.28;;;12.40;51.70;;;;;;5031444;28;20118;-64
2021/05/26 00:39:37;;;;;;;0.65;0.20;;;12.40;51.70;;;;;;5031343;28;20417;-64
2021/05/26 00:42:03;;;;;;;2.83;0.40;;;12.40;51.80;;;;;;5029189;28;20041;-64
2021/05/26 00:44:34;;;;;;;1.35;0.30;;;12.40;51.70;;;;;;5031086;28;20548;-63
2021/05/26 00:46:59;;;;;;;0.57;0.30;;;12.40;51.90;;;;;;5029865;28;20033;-64
2021/05/26 00:49:29;;;;;;;3.38;0.50;;;12.50;51.90;;;;;;5032359;28;20527;-64
2021/05/26 00:51:55;;;;;;;0.35;0.20;;;12.40;52.00;;;;;;5031787;28;20037;-64
2021/05/26 00:54:25;;;;;;;1.30;0.40;;;12.50;52.00;;;;;;5030413;28;20559;-64
2021/05/26 00:56:51;;;;;;;1.60;0.30;;;12.50;52.00;;;;;;5027345;28;20455;-64
2021/05/26 00:59:19;;;;;;;2.25;0.30;;;12.50;52.00;;;;;;5039265;28;20033;-63
2021/05/26 01:01:47;;;;;;;0.65;0.30;;;12.50;52.00;;;;;;5032593;28;20723;-64
2021/05/26 01:04:15;;;;;;;2.58;0.32;;;12.50;52.00;;;;;;5032224;28;20037;-63
2021/05/26 01:06:44;;;;;;;0.63;0.25;;;12.50;52.10;;;;;;5028213;28;20124;-64
2021/05/26 01:09:12;;;;;;;0.70;0.20;;;12.50;52.00;;;;;;5032710;28;20539;-64
2021/05/26 01:11:40;;;;;;;2.58;0.30;;;12.50;52.20;;;;;;5029359;28;20041;-63
2021/05/26 01:14:08;;;;;;;1.40;0.30;;;12.50;52.10;;;;;;5032294;28;20037;-64
2021/05/26 01:16:36;;;;;;;0.60;0.20;;;12.60;52.20;;;;;;5032492;28;20033;-65
2021/05/26 01:19:07;;;;;;;1.45;0.30;;;12.60;52.20;;;;;;5034862;28;20038;-64
2021/05/26 01:21:35;;;;;;;3.22;0.30;;;12.60;52.30;;;;;;5030722;28;20415;-64
2021/05/26 01:24:06;;;;;;;0.90;0.40;;;12.60;52.40;;;;;;5034985;28;20039;-64
2021/05/26 01:26:34;;;;;;;1.77;0.38;;;12.60;52.40;;;;;;5027293;28;20040;-64
2021/05/26 01:29:03;;;;;;;1.15;0.40;;;12.60;52.30;;;;;;5040688;28;20072;-64
2021/05/26 01:31:30;;;;;;;1.55;0.30;;;12.50;52.30;;;;;;5033123;28;20088;-64
2021/05/26 01:33:58;;;;;;;1.25;0.38;;;12.50;52.40;;;;;;5034098;28;20087;-64
2021/05/26 01:36:29;;;;;;;0.55;0.30;;;12.50;52.50;;;;;;5034931;28;20049;-65
2021/05/26 01:38:57;;;;;;;0.95;0.30;;;12.40;52.60;;;;;;5037512;28;20108;-64
2021/05/26 01:41:27;;;;;;;2.35;0.40;;;12.40;52.70;;;;;;5023463;28;20394;-64
2021/05/26 01:43:54;;;;;;;2.53;0.30;;;12.40;52.70;;;;;;5031830;28;20037;-64
2021/05/26 01:46:23;;;;;;;1.75;0.40;;;12.40;52.80;;;;;;5029854;28;20041;-64
2021/05/26 01:48:51;;;;;;;1.63;0.45;;;12.40;52.90;;;;;;5025900;28;20047;-64
2021/05/26 01:51:18;;;;;;;0.85;0.30;;;12.30;53.00;;;;;;5035660;28;20033;-64
2021/05/26 01:53:46;;;;;;;1.23;0.30;;;12.40;53.00;;;;;;5030806;28;20607;-64
2021/05/26 01:56:21;;;;;;;1.45;0.38;;;12.30;53.00;;;;;;5032618;28;20045;-64
2021/05/26 01:58:51;;;;;;;1.00;0.32;;;12.30;53.30;;;;;;5027829;28;20444;-64
2021/05/26 02:01:21;;;;;;;1.23;0.40;;;12.20;53.20;;;;;;5028756;28;20047;-64
2021/05/26 02:03:52;;;;;;;0.63;0.20;;;12.20;53.20;;;;;;5028374;28;20034;-63
2021/05/26 02:06:22;;;;;;;0.73;0.30;;;12.20;53.20;;;;;;5027103;28;20591;-64
2021/05/26 02:08:55;;;;;;;1.08;0.25;;;12.20;53.20;;;;;;5029609;28;20028;-64
2021/05/26 02:14:12;;;;;;;0.50;0.30;;;12.10;54.10;;;;;;5028138;28;20091;-64
2021/05/26 02:16:38;;;;;;;1.60;0.30;;;12.10;53.50;;;;;;5028179;28;20037;-64
2021/05/26 02:19:08;;;;;;;1.33;0.35;;;12.10;53.40;;;;;;5044209;28;20040;-64
2021/05/26 02:21:39;;;;;;;0.35;0.20;;;12.00;54.20;;;;;;5027540;28;20051;-64
2021/05/26 02:24:04;;;;;;;1.48;0.40;;;12.10;53.70;;;;;;5028726;28;20665;-64
2021/05/26 02:26:35;;;;;;;1.20;0.47;;;12.00;53.60;;;;;;5029663;28;20053;-64
2021/05/26 02:29:03;;;;;;;1.45;0.50;;;12.00;53.70;;;;;;5028159;28;20116;-64
2021/05/26 02:31:33;;;;;;;1.65;0.38;;;12.10;53.70;;;;;;5030343;28;20416;-64
2021/05/26 02:34:03;;;;;;;0.77;0.40;;;12.10;53.70;;;;;;5029073;28;20029;-64
2021/05/26 02:36:31;;;;;;;1.55;0.38;;;12.10;53.70;;;;;;5025624;28;20030;-63
2021/05/26 02:38:59;;;;;;;0.65;0.30;;;12.10;53.60;;;;;;5030688;28;20033;-64
2021/05/26 02:41:32;;;;;;;0.82;0.22;;;12.10;53.70;;;;;;5037221;28;20041;-64
2021/05/26 02:44:02;;;;;;;2.55;0.60;;;12.10;53.70;;;;;;5028727;28;20041;-64
2021/05/26 02:46:27;;;;;;;1.15;0.32;;;12.10;54.00;;;;;;5031766;28;20121;-64
2021/05/26 02:49:00;;;;;;;1.48;0.30;;;12.10;54.00;;;;;;5031584;28;20445;-64
2021/05/26 02:51:26;;;;;;;2.63;0.38;;;12.10;54.10;;;;;;5027676;28;20069;-63
2021/05/26 02:53:54;;;;;;;1.83;0.40;;;12.10;54.10;;;;;;5032615;28;20064;-63
2021/05/26 02:56:24;;;;;;;2.80;0.38;;;12.10;54.00;;;;;;5036470;28;20501;-65
2021/05/26 02:58:53;;;;;;;1.08;0.50;;;12.10;54.10;;;;;;5034075;28;20040;-64
2021/05/26 03:01:21;;;;;;;2.22;0.40;;;12.00;54.10;;;;;;5031643;28;20041;-64
2021/05/26 03:03:46;;;;;;;0.40;0.22;;;12.00;54.20;;;;;;5034956;28;20083;-64
2021/05/26 03:06:15;;;;;;;1.35;0.30;;;12.00;54.10;;;;;;5030026;28;20049;-64
2021/05/26 03:08:43;;;;;;;0.82;0.38;;;12.00;54.30;;;;;;5028500;28;20034;-64
2021/05/26 03:11:11;;;;;;;2.22;0.30;;;12.00;54.40;;;;;;5026003;28;20448;-64
2021/05/26 03:13:41;;;;;;;0.65;0.38;;;12.00;54.70;;;;;;5032612;28;20030;-64
2021/05/26 03:16:15;;;;;;;2.10;0.32;;;12.00;54.70;;;;;;5032048;28;20033;-63
2021/05/26 03:18:43;;;;;;;1.02;0.40;;;12.00;54.80;;;;;;5033970;28;20045;-65
2021/05/26 03:21:10;;;;;;;1.70;0.43;;;12.00;54.60;;;;;;5035876;28;20041;-64
2021/05/26 03:23:41;;;;;;;1.27;0.32;;;11.90;54.60;;;;;;5034709;28;20064;-64
2021/05/26 03:26:11;;;;;;;0.90;0.50;;;12.00;54.80;;;;;;5030791;28;20041;-64
2021/05/26 03:28:39;;;;;;;1.45;0.20;;;12.00;54.90;;;;;;5032625;28;20112;-64
2021/05/26 03:31:08;;;;;;;2.28;0.40;;;12.00;54.80;;;;;;5031060;28;20508;-64
2021/05/26 03:33:36;;;;;;;1.05;0.38;;;12.00;54.80;;;;;;5034203;28;20041;-64
2021/05/26 03:36:08;;;;;;;0.98;0.40;;;12.00;54.90;;;;;;5035442;28;20034;-64
2021/05/26 03:38:36;;;;;;;0.30;0.20;;;12.00;55.00;;;;;;5033906;28;20544;-64
2021/05/26 03:41:08;;;;;;;2.40;0.30;;;12.00;54.90;;;;;;5026404;28;20041;-64
2021/05/26 03:43:38;;;;;;;1.60;0.40;;;12.00;55.00;;;;;;5031439;28;20041;-64
2021/05/26 03:46:04;;;;;;;0.43;0.28;;;12.10;55.10;;;;;;5030071;28;20034;-65
2021/05/26 03:48:34;;;;;;;2.05;0.30;;;12.10;55.00;;;;;;5027896;28;20049;-64
2021/05/26 03:51:00;;;;;;;1.30;0.30;;;12.10;55.00;;;;;;5024056;28;20411;-62
2021/05/26 03:53:28;;;;;;;1.67;0.35;;;12.10;55.00;;;;;;5025553;28;20033;-63
2021/05/26 03:55:56;;;;;;;1.98;0.50;;;12.10;55.20;;;;;;5024958;28;20124;-64
2021/05/26 03:58:26;;;;;;;0.80;0.30;;;12.10;55.40;;;;;;5024193;28;20125;-63
2021/05/26 04:00:56;;;;;;;0.90;0.43;;;12.10;55.30;;;;;;5026755;28;20400;-63
2021/05/26 04:03:27;;;;;;;1.58;0.30;;;12.10;55.40;;;;;;5033693;28;20837;-64
2021/05/26 04:05:57;;;;;;;1.40;0.50;;;12.00;55.40;;;;;;5029805;28;20120;-66
2021/05/26 04:08:23;;;;;;;0.93;0.40;;;12.00;55.60;;;;;;5032630;28;20043;-64
2021/05/26 04:10:56;;;;;;;0.98;0.38;;;12.00;55.50;;;;;;5027371;28;20033;-64
2021/05/26 04:13:21;;;;;;;1.10;0.40;;;12.00;55.80;;;;;;5030974;28;20053;-64
2021/05/26 04:15:49;;;;;;;1.45;0.55;;;12.00;55.70;;;;;;5034460;28;20523;-65
2021/05/26 04:18:19;;;;;;;19.48;9.05;;;11.90;55.70;;;;;;5035158;28;20125;-64
2021/05/26 04:20:45;;;;;;;6.72;3.70;;;12.00;55.90;;;;;;5034635;28;20512;-64
2021/05/26 04:23:15;;;;;;;9.45;6.00;;;12.00;55.80;;;;;;5030773;28;20040;-64
2021/05/26 04:25:50;;;;;;;10.25;7.05;;;12.00;56.00;;;;;;5027244;28;20045;-65
2021/05/26 04:28:22;;;;;;;8.75;4.82;;;12.00;56.00;;;;;;5030820;28;20152;-64
2021/05/26 04:30:51;;;;;;;6.35;4.72;;;12.00;56.00;;;;;;5031184;28;20037;-65
2021/05/26 04:33:19;;;;;;;10.77;8.18;;;12.00;56.00;;;;;;5031323;28;20029;-64
2021/05/26 04:35:50;;;;;;;2.15;1.38;;;12.10;56.20;;;;;;5034444;28;20033;-64
2021/05/26 04:38:17;;;;;;;3.08;0.63;;;12.10;56.40;;;;;;5035660;28;20128;-64
2021/05/26 04:40:45;;;;;;;2.50;0.70;;;12.10;56.50;;;;;;5035759;28;20034;-64
2021/05/26 04:43:13;;;;;;;2.05;0.60;;;12.10;56.80;;;;;;5036512;28;20033;-64
2021/05/26 04:45:42;;;;;;;2.00;0.60;;;12.10;57.00;;;;;;5036889;28;20508;-65
2021/05/26 04:48:07;;;;;;;1.02;0.93;;;12.10;57.00;;;;;;5035657;28;20504;-64
2021/05/26 04:50:38;;;;;;;4.68;3.92;;;12.10;57.10;;;;;;5036188;28;20091;-65
2021/05/26 04:53:03;;;;;;;6.07;5.47;;;12.10;57.20;;;;;;5035674;28;20053;-65
2021/05/26 04:55:31;;;;;;;3.83;2.55;;;12.10;57.10;;;;;;5036776;28;20447;-65
2021/05/26 04:58:09;;;;;;;1.80;1.50;;;12.20;57.10;;;;;;5037069;28;20029;-65
2021/05/26 05:00:35;;;;;;;1.58;1.02;;;12.20;57.60;;;;;;5035450;28;20041;-65
2021/05/26 05:03:07;;;;;;;1.42;0.40;;;12.20;57.60;;;;;;5035480;28;20102;-65
2021/05/26 05:05:33;;;;;;;2.40;0.60;;;12.30;57.50;;;;;;5035183;28;20036;-65
2021/05/26 05:08:05;;;;;;;1.17;0.50;;;12.30;57.50;;;;;;5042959;28;20397;-65
2021/05/26 05:10:32;;;;;;;1.33;0.47;;;12.30;57.70;;;;;;5033085;28;20036;-64
2021/05/26 05:12:57;;;;;;;1.42;0.70;;;12.30;57.40;;;;;;5034104;28;20029;-64
2021/05/26 05:15:31;;;;;;;0.80;0.40;;;12.30;57.40;;;;;;5036391;28;20087;-65
2021/05/26 05:17:59;;;;;;;1.52;0.70;;;12.30;57.60;;;;;;5036499;28;20025;-65
2021/05/26 05:20:31;;;;;;;3.08;1.10;;;12.30;57.70;;;;;;5033480;28;20037;-65
2021/05/26 05:22:59;;;;;;;1.15;0.98;;;12.30;57.90;;;;;;5035713;28;20032;-65
2021/05/26 05:25:29;;;;;;;2.25;0.95;;;12.30;58.00;;;;;;5036026;28;20500;-66
2021/05/26 05:27:57;;;;;;;4.70;0.98;;;12.40;58.30;;;;;;5036776;28;20037;-65
2021/05/26 05:30:28;;;;;;;2.08;0.60;;;12.40;58.10;;;;;;5035753;28;20049;-65
2021/05/26 05:32:56;;;;;;;2.08;0.40;;;12.40;57.90;;;;;;5035146;28;20405;-65
2021/05/26 05:35:21;;;;;;;2.92;0.57;;;12.40;57.80;;;;;;5037169;28;20099;-65
2021/05/26 05:37:49;;;;;;;4.10;0.65;;;12.50;57.80;;;;;;5034489;28;20056;-65
2021/05/26 05:40:17;;;;;;;3.83;0.50;;;12.50;57.80;;;;;;5035258;28;20468;-65
2021/05/26 05:42:43;;;;;;;1.25;0.63;;;12.50;57.60;;;;;;5031563;28;20115;-65
2021/05/26 05:45:16;;;;;;;2.60;0.70;;;12.40;57.50;;;;;;5035085;28;20464;-65
2021/05/26 05:47:41;;;;;;;2.58;0.55;;;12.40;57.50;;;;;;5035657;28;20033;-64
2021/05/26 05:50:18;;;;;;;3.13;0.60;;;12.40;57.30;;;;;;5035072;28;20048;-65
2021/05/26 05:52:48;;;;;;;2.70;0.57;;;12.40;57.50;;;;;;5030876;28;20030;-65
2021/05/26 05:55:16;;;;;;;2.72;0.47;;;12.40;57.70;;;;;;5043686;28;20240;-65
2021/05/26 05:57:47;;;;;;;2.30;0.68;;;12.40;57.80;;;;;;5035633;28;20032;-64
2021/05/26 06:00:21;;;;;;;1.80;0.50;;;12.30;57.80;;;;;;5035346;28;20336;-65
2021/05/26 06:02:47;;;;;;;2.67;0.70;;;12.30;58.00;;;;;;5040194;28;20581;-65
2021/05/26 06:05:17;;;;;;;4.85;0.60;;;12.30;58.00;;;;;;5031058;28;20386;-65
2021/05/26 06:07:42;;;;;;;4.45;0.50;;;12.30;58.00;;;;;;5034585;28;20038;-64
2021/05/26 06:10:13;;;;;;;3.88;0.57;;;12.30;57.90;;;;;;5033363;28;20033;-65
2021/05/26 06:12:46;;;;;;;3.15;0.50;;;12.40;58.10;;;;;;5027925;28;20033;-65
2021/05/26 06:15:14;;;;;;;3.53;0.60;;;12.40;58.10;;;;;;5032362;28;20029;-65
2021/05/26 06:17:42;;;;;;;2.92;0.70;;;12.40;58.20;;;;;;5034072;28;20187;-65
2021/05/26 06:20:14;;;;;;;2.67;0.80;;;12.40;59.00;;;;;;5031398;28;20033;-65
2021/05/26 06:22:39;;;;;;;0.90;0.50;;;12.50;58.20;;;;;;5038820;28;20026;-65
2021/05/26 06:25:10;;;;;;;1.63;0.60;;;12.50;58.10;;;;;;5034094;28;20029;-65
2021/05/26 06:27:43;;;;;;;3.33;0.50;;;12.50;58.10;;;;;;5034289;28;20033;-65
2021/05/26 06:30:12;;;;;;;1.00;0.60;;;12.50;58.30;;;;;;5034722;28;20029;-65
2021/05/26 06:32:40;;;;;;;4.00;0.57;;;12.60;58.30;;;;;;5033645;28;20025;-65
2021/05/26 06:35:08;;;;;;;1.98;0.45;;;12.60;58.10;;;;;;5040100;28;20036;-65
2021/05/26 06:37:41;;;;;;;1.75;0.57;;;12.60;58.20;;;;;;5034483;28;20534;-65
2021/05/26 06:40:12;;;;;;;2.13;0.80;;;12.60;58.10;;;;;;5035827;28;20037;-65
2021/05/26 06:42:42;;;;;;;3.05;0.63;;;12.60;58.10;;;;;;5034745;28;20037;-66
2021/05/26 06:45:15;;;;;;;1.33;0.50;;;12.70;58.10;;;;;;5035355;28;20118;-65
2021/05/26 06:47:45;;;;;;;0.85;0.50;;;12.70;58.00;;;;;;5032772;28;20041;-65
2021/05/26 06:50:13;;;;;;;1.45;0.40;;;12.80;58.00;;;;;;5034307;28;20032;-64
2021/05/26 06:52:41;;;;;;;1.38;0.50;;;12.80;57.90;;;;;;5039666;28;20075;-65
2021/05/26 06:55:12;;;;;;;1.60;0.50;;;12.80;57.90;;;;;;5035783;28;20734;-65
2021/05/26 06:57:40;;;;;;;2.10;0.50;;;12.90;57.80;;;;;;5032513;28;20128;-65
2021/05/26 07:00:09;;;;;;;3.33;0.70;;;12.90;57.70;;;;;;5034972;28;20519;-65
2021/05/26 07:02:37;;;;;;;1.00;0.40;;;13.00;57.70;;;;;;5022752;28;20040;-65
2021/05/26 07:05:05;;;;;;;2.92;0.60;;;13.00;57.70;;;;;;5032682;28;20026;-63
2021/05/26 07:07:33;;;;;;;4.05;0.60;;;13.10;57.80;;;;;;5029518;28;20032;-65
2021/05/26 07:10:00;;;;;;;1.55;0.90;;;13.20;57.80;;;;;;5032449;28;20121;-66
2021/05/26 07:12:31;;;;;;;2.72;0.82;;;13.20;57.70;;;;;;5030322;28;20060;-65
2021/05/26 07:14:57;;;;;;;2.03;1.40;;;13.30;57.60;;;;;;5032239;28;20394;-65
2021/05/26 07:17:24;;;;;;;2.75;0.70;;;13.30;57.50;;;;;;5031905;28;20063;-66
2021/05/26 07:19:57;;;;;;;1.65;0.88;;;13.40;57.50;;;;;;5032206;28;20030;-65
2021/05/26 07:22:23;;;;;;;7.78;3.88;;;13.50;57.50;;;;;;5031014;28;20034;-64
2021/05/26 07:24:56;;;;;;;2.67;1.00;;;13.60;57.40;;;;;;5035030;28;20026;-64
2021/05/26 07:27:24;;;;;;;1.63;0.63;;;13.60;57.40;;;;;;5039219;28;20029;-64
2021/05/26 07:29:51;;;;;;;2.17;0.73;;;13.70;57.40;;;;;;5038223;28;20493;-65
2021/05/26 07:32:17;;;;;;;3.95;0.70;;;13.80;57.40;;;;;;5035801;28;20046;-65
2021/05/26 07:34:47;;;;;;;7.32;1.05;;;13.90;57.10;;;;;;5037404;28;20045;-65
2021/05/26 07:37:16;;;;;;;3.17;0.75;;;13.90;57.00;;;;;;5037192;28;20660;-65
2021/05/26 07:39:43;;;;;;;3.00;0.63;;;14.00;56.90;;;;;;5035845;28;20056;-65
2021/05/26 07:42:16;;;;;;;2.25;0.98;;;14.10;56.90;;;;;;5034983;28;20029;-65
2021/05/26 07:44:44;;;;;;;1.33;0.55;;;14.20;56.70;;;;;;5038218;28;20045;-65
2021/05/26 07:47:10;;;;;;;1.30;0.57;;;14.30;56.60;;;;;;5033375;28;20040;-65
2021/05/26 07:49:40;;;;;;;4.10;0.57;;;14.40;56.40;;;;;;5038230;28;20079;-65
2021/05/26 07:52:11;;;;;;;3.28;0.80;;;14.40;56.40;;;;;;5032979;28;20061;-65
2021/05/26 07:54:40;;;;;;;3.17;0.70;;;14.50;56.00;;;;;;5036145;28;20452;-65
2021/05/26 07:57:09;;;;;;;1.83;0.70;;;14.60;55.90;;;;;;5032073;28;20487;-65
2021/05/26 07:59:34;;;;;;;1.95;0.60;;;14.60;55.90;;;;;;5043894;28;20106;-65
2021/05/26 08:02:02;;;;;;;1.38;0.60;;;14.70;55.70;;;;;;5034352;28;20033;-65
2021/05/26 08:04:28;;;;;;;2.25;0.80;;;14.70;55.50;;;;;;5037356;28;20030;-65
2021/05/26 08:06:53;;;;;;;3.08;1.25;;;14.80;55.50;;;;;;5038019;28;20426;-65
2021/05/26 08:09:22;;;;;;;2.58;0.57;;;14.80;55.60;;;;;;5036680;28;20067;-65
2021/05/26 08:11:54;;;;;;;3.00;0.80;;;14.90;55.30;;;;;;5031215;28;20412;-65
2021/05/26 08:14:22;;;;;;;2.83;0.82;;;15.00;55.30;;;;;;5036463;28;20393;-65
2021/05/26 08:16:50;;;;;;;1.30;0.70;;;15.00;55.20;;;;;;5035658;28;20041;-65
2021/05/26 08:19:17;;;;;;;2.28;0.80;;;15.10;54.80;;;;;;5035664;28;20030;-65
2021/05/26 08:21:46;;;;;;;2.13;0.70;;;15.20;54.70;;;;;;5034194;28;20575;-65
2021/05/26 08:24:16;;;;;;;2.65;0.90;;;15.20;54.60;;;;;;5036991;28;20045;-65
2021/05/26 08:26:42;;;;;;;2.60;0.77;;;15.30;54.50;;;;;;5035731;28;20036;-65
2021/05/26 08:29:12;;;;;;;4.13;1.00;;;15.30;54.10;;;;;;5036480;28;20032;-65
2021/05/26 08:31:39;;;;;;;4.05;1.05;;;15.30;54.20;;;;;;5034147;28;20040;-65
2021/05/26 08:34:05;;;;;;;3.75;0.70;;;15.30;53.60;;;;;;5035204;28;20053;-65
2021/05/26 08:36:35;;;;;;;3.97;0.95;;;15.40;53.70;;;;;;5034415;28;20765;-65
2021/05/26 08:39:04;;;;;;;4.15;0.95;;;15.30;53.70;;;;;;5035454;28;20307;-65
2021/05/26 08:41:34;;;;;;;2.03;0.70;;;15.30;53.80;;;;;;5033926;28;20048;-65
2021/05/26 08:43:59;;;;;;;1.70;0.90;;;15.40;53.70;;;;;;5034613;28;20579;-65
2021/05/26 08:46:29;;;;;;;4.55;0.90;;;15.30;53.70;;;;;;5035406;28;20171;-65
2021/05/26 08:49:05;;;;;;;2.55;1.10;;;15.30;53.80;;;;;;5035618;28;20033;-65
2021/05/26 08:51:34;;;;;;;2.70;0.70;;;15.30;54.60;;;;;;5028545;28;20211;-66
2021/05/26 08:54:02;;;;;;;1.48;0.88;;;15.30;54.60;;;;;;5030245;28;20033;-65
2021/05/26 08:56:32;;;;;;;2.40;0.90;;;15.30;55.30;;;;;;5034436;28;20565;-65
2021/05/26 08:58:57;;;;;;;3.88;0.90;;;15.30;55.30;;;;;;5050237;28;20037;-65
2021/05/26 09:01:23;;;;;;;2.90;1.00;;;15.20;55.00;;;;;;5034212;28;20090;-65
2021/05/26 09:03:53;;;;;;;3.35;0.88;;;15.30;54.80;;;;;;5035174;28;20481;-65
2021/05/26 09:06:22;;;;;;;5.25;1.15;;;15.20;54.60;;;;;;5032757;28;20142;-65
2021/05/26 09:08:52;;;;;;;2.75;1.15;;;15.20;54.40;;;;;;5036290;28;20489;-65
2021/05/26 09:11:30;;;;;;;4.45;1.65;;;15.20;54.40;;;;;;5034781;28;20448;-65
2021/05/26 09:14:09;;;;;;;4.38;1.00;;;15.20;54.20;;;;;;5044188;28;20112;-65
2021/05/26 09:16:37;;;;;;;4.65;1.80;;;15.20;54.30;;;;;;5037000;28;20034;-65
2021/05/26 09:19:06;;;;;;;3.13;1.42;;;15.10;54.00;;;;;;5037792;28;20086;-65
2021/05/26 09:21:50;;;;;;;5.97;1.88;;;15.10;53.90;;;;;;5032436;28;20090;-65
2021/05/26 09:24:19;;;;;;;2.47;1.20;;;15.10;53.80;;;;;;5036618;28;20040;-64
2021/05/26 09:27:07;;;;;;;3.33;1.13;;;15.10;54.00;;;;;;5035862;28;20574;-65
2021/05/26 09:29:44;;;;;;;2.35;0.80;;;15.10;54.30;;;;;;5035552;28;20124;-65
2021/05/26 09:32:21;;;;;;;4.97;1.30;;;15.00;54.30;;;;;;5036567;28;20037;-65
2021/05/26 09:34:58;;;;;;;3.70;1.13;;;15.00;54.20;;;;;;5035125;28;20037;-65
2021/05/26 09:37:29;;;;;;;3.75;1.30;;;15.10;54.00;;;;;;5040612;28;20068;-66
2021/05/26 09:40:06;;;;;;;2.83;1.08;;;15.10;54.00;;;;;;5035753;28;20118;-65
2021/05/26 09:42:36;;;;;;;3.78;0.95;;;15.10;54.00;;;;;;5033576;28;20033;-64
2021/05/26 09:45:13;;;;;;;3.92;1.30;;;15.00;54.20;;;;;;5036372;28;20037;-65
2021/05/26 09:47:45;;;;;;;3.15;1.17;;;15.10;54.70;;;;;;5043621;28;20112;-66
2021/05/26 09:50:39;;;;;;;3.95;1.27;;;15.10;54.60;;;;;;5033962;28;20060;-65
2021/05/26 09:53:18;;;;;;;2.88;1.13;;;15.10;54.60;;;;;;5027966;28;20037;-65
2021/05/26 09:55:46;;;;;;;3.97;1.10;;;15.10;54.90;;;;;;5035842;28;20048;-65
2021/05/26 09:58:13;;;;;;;5.43;1.10;;;15.20;54.80;;;;;;5034202;28;20497;-65
2021/05/26 10:00:47;;;;;;;3.53;1.02;;;15.20;55.00;;;;;;5034364;28;20090;-65
2021/05/26 10:03:16;;;;;;;4.78;1.25;;;15.20;55.40;;;;;;5030414;28;20037;-65
2021/05/26 10:05:46;;;;;;;2.83;1.20;;;15.20;55.50;;;;;;5030759;28;20584;-65
2021/05/26 10:08:19;;;;;;;2.70;1.10;;;15.20;56.00;;;;;;5035159;28;20048;-65
2021/05/26 10:10:51;;;;;;;3.75;1.00;;;15.20;56.00;;;;;;5033165;28;20123;-65
2021/05/26 10:13:20;;;;;;;3.13;1.27;;;15.20;56.10;;;;;;5032527;28;20582;-64
2021/05/26 10:15:49;;;;;;;3.65;1.40;;;15.30;56.20;;;;;;5034026;28;20112;-65
2021/05/26 10:18:23;;;;;;;3.55;1.20;;;15.30;56.50;;;;;;5035652;28;20401;-65
2021/05/26 10:20:49;;;;;;;4.47;0.98;;;15.30;56.60;;;;;;5034683;28;20116;-64
2021/05/26 10:23:19;;;;;;;3.90;1.58;;;15.30;56.60;;;;;;5036458;28;20035;-64
2021/05/26 10:25:53;;;;;;;4.45;1.40;;;15.30;56.70;;;;;;5034815;28;20493;-65
2021/05/26 10:28:31;;;;;;;4.72;1.17;;;15.30;56.40;;;;;;5036575;28;20501;-65
2021/05/26 10:31:01;;;;;;;5.00;1.20;;;15.30;57.10;;;;;;5036876;28;20047;-65
2021/05/26 10:33:41;;;;;;;2.47;0.90;;;15.30;56.70;;;;;;5035296;28;20037;-65
2021/05/26 10:36:15;;;;;;;3.63;1.00;;;15.30;56.90;;;;;;5036220;28;20037;-65
2021/05/26 10:39:01;;;;;;;4.43;1.35;;;15.30;56.70;;;;;;5035871;28;20874;-65
2021/05/26 10:41:52;;;;;;;4.72;1.30;;;15.30;56.80;;;;;;5035148;28;20038;-64
2021/05/26 10:44:22;;;;;;;4.50;1.60;;;15.30;57.00;;;;;;5034768;28;20033;-65
2021/05/26 10:46:52;;;;;;;4.28;1.50;;;15.30;57.00;;;;;;5035866;28;20030;-65
2021/05/26 10:49:40;;;;;;;2.40;1.00;;;15.40;57.30;;;;;;5031297;28;20437;-65
2021/05/26 10:52:06;;;;;;;2.38;0.90;;;15.30;57.00;;;;;;5034226;28;20045;-65
2021/05/26 10:54:38;;;;;;;4.00;1.23;;;15.40;57.50;;;;;;5033198;28;20566;-65
2021/05/26 10:57:04;;;;;;;4.15;1.42;;;15.30;57.00;;;;;;5033078;28;20026;-65
2021/05/26 10:59:34;;;;;;;3.03;1.00;;;15.30;56.70;;;;;;5031924;28;20123;-65
2021/05/26 11:02:12;;;;;;;3.97;1.15;;;15.30;56.70;;;;;;5034844;28;20052;-65
2021/05/26 11:04:41;;;;;;;3.08;1.17;;;15.40;57.00;;;;;;5037648;28;20030;-65
2021/05/26 11:07:19;;;;;;;3.35;1.20;;;15.40;57.30;;;;;;5037729;28;20040;-65
2021/05/26 11:10:01;;;;;;;4.55;1.23;;;15.40;58.10;;;;;;5038994;28;20040;-65
2021/05/26 11:12:51;;;;;;;2.58;1.10;;;15.50;58.50;;;;;;5034691;28;20047;-65
2021/05/26 11:15:43;;;;;;;2.55;1.10;;;15.50;58.40;;;;;;5034532;28;20037;-65
2021/05/26 11:20:45;;;;;;;3.42;1.98;;;15.60;58.80;;;;;;5037991;28;20041;-65
2021/05/26 11:23:13;;;;;;;6.05;2.35;;;15.60;58.50;;;;;;5037120;28;20053;-65
2021/05/26 11:25:56;;;;;;;6.88;2.03;;;15.60;58.30;;;;;;5036771;28;20495;-65
2021/05/26 11:28:35;;;;;;;5.53;1.90;;;15.70;58.80;;;;;;5037471;28;20037;-66
2021/05/26 11:31:11;;;;;;;4.07;1.40;;;15.70;58.90;;;;;;5037352;28;20546;-65
2021/05/26 11:33:56;;;;;;;3.88;1.52;;;15.70;59.30;;;;;;5037013;28;20057;-65
2021/05/26 11:36:46;;;;;;;4.65;1.50;;;15.70;59.20;;;;;;5038589;28;20033;-65
2021/05/26 11:39:29;;;;;;;5.97;1.50;;;15.70;59.40;;;;;;5036565;28;20026;-65
2021/05/26 11:42:18;;;;;;;5.60;1.50;;;15.70;59.50;;;;;;5035544;28;20552;-65
2021/05/26 11:44:59;;;;;;;4.65;1.80;;;15.70;59.70;;;;;;5035248;28;20041;-65
2021/05/26 11:47:34;;;;;;;4.22;1.67;;;15.70;59.00;;;;;;5037576;28;20440;-65
2021/05/26 11:50:15;;;;;;;3.88;1.80;;;15.70;59.00;;;;;;5034949;28;20406;-65
2021/05/26 11:52:46;;;;;;;4.50;2.00;;;15.60;58.60;;;;;;5035042;28;20449;-65
2021/05/26 11:55:12;;;;;;;7.45;2.25;;;15.50;58.70;;;;;;5036351;28;20032;-65
2021/05/26 11:57:42;;;;;;;5.13;2.35;;;15.50;58.60;;;;;;5037534;28;20032;-65
2021/05/26 12:00:20;;;;;;;4.72;2.22;;;15.40;58.60;;;;;;5043825;28;20041;-65
2021/05/26 12:03:03;;;;;;;5.85;2.28;;;15.30;59.20;;;;;;5036813;28;20119;-65
2021/05/26 12:05:51;;;;;;;6.95;2.70;;;15.30;59.50;;;;;;5036419;28;20026;-65
2021/05/26 12:08:26;;;;;;;7.10;2.60;;;15.20;59.70;;;;;;5036851;28;20037;-65
2021/05/26 12:11:03;;;;;;;5.97;2.50;;;15.20;60.00;;;;;;5032250;28;20033;-66
2021/05/26 12:13:36;;;;;;;6.30;2.47;;;15.10;60.30;;;;;;5034223;28;20033;-65
2021/05/26 12:16:06;;;;;;;5.97;2.90;;;15.10;60.70;;;;;;5035210;28;20191;-65
2021/05/26 12:18:38;;;;;;;5.22;2.35;;;15.10;60.70;;;;;;5036034;28;20120;-65
2021/05/26 12:21:04;;;;;;;4.55;2.35;;;15.00;60.80;;;;;;5036380;28;20033;-65
2021/05/26 12:23:40;;;;;;;5.25;2.47;;;15.00;60.50;;;;;;5037641;28;20030;-66
2021/05/26 12:26:35;;;;;;;6.05;2.20;;;15.00;61.50;;;;;;5031087;28;20052;-65
2021/05/26 12:29:11;;;;;;;5.10;2.10;;;15.00;62.10;;;;;;5032252;28;20561;-65
2021/05/26 12:31:40;;;;;;;5.35;3.15;;;15.00;61.50;;;;;;5034565;28;20378;-65
2021/05/26 12:34:20;;;;;;;5.68;2.40;;;15.00;61.80;;;;;;5034022;28;20041;-65
2021/05/26 12:36:53;;;;;;;5.45;2.13;;;15.00;62.90;;;;;;5037935;28;20112;-65
2021/05/26 12:39:24;;;;;;;5.65;2.40;;;15.00;61.90;;;;;;5034955;28;20072;-65
2021/05/26 12:41:55;;;;;;;2.60;1.60;;;14.90;62.00;;;;;;5035410;28;20068;-65
2021/05/26 12:44:24;;;;;;;2.53;1.40;;;14.90;61.90;;;;;;5036103;28;20143;-65
2021/05/26 12:47:02;;;;;;;2.67;1.55;;;14.90;62.00;;;;;;5034906;28;20042;-65
2021/05/26 12:49:33;;;;;;;3.00;1.50;;;14.90;62.30;;;;;;5031558;28;20040;-66
2021/05/26 12:52:07;;;;;;;3.35;1.13;;;14.90;62.20;;;;;;5034823;28;20033;-65
2021/05/26 12:54:44;;;;;;;1.95;1.08;;;14.90;62.70;;;;;;5034389;28;20104;-65
2021/05/26 12:57:24;;;;;;;5.15;1.30;;;14.90;63.30;;;;;;5033535;28;20038;-66
2021/05/26 12:59:57;;;;;;;3.35;1.50;;;14.90;62.70;;;;;;5036969;28;20508;-65
2021/05/26 13:02:36;;;;;;;2.83;1.38;;;14.90;63.10;;;;;;5034176;28;20037;-65
2021/05/26 13:05:05;;;;;;;3.25;1.35;;;14.90;63.70;;;;;;5032880;28;20556;-65
2021/05/26 13:07:37;;;;;;;1.73;1.10;;;14.90;62.40;;;;;;5036281;28;20090;-65
2021/05/26 13:10:28;;;;;;;1.70;0.93;;;14.90;61.70;;;;;;5034687;28;20057;-65